Time;durP1;ratioP1;P1;durP2;ratioP2;P2;SDS_P1;SDS_P2;PMS_P1;PMS_P2;Temp;Humidity;BMP_temperature;BMP_pressure;BME280_temperature;BME280_humidity;BME280_pressure;Samples;Min_cycle;Max_cycle;Signal;HPM_P1;HPM_P2
2022/06/05 00:00:18;;;;;;;16.07;11.60;;;15.60;97.30;;;;;;5029425;28;20231;-85
2022/06/05 00:03:02;;;;;;;12.83;10.20;;;15.50;97.30;;;;;;5033020;28;20227;-85
2022/06/05 00:05:36;;;;;;;16.50;11.73;;;15.50;97.30;;;;;;5033148;28;20784;-85
2022/06/05 00:08:06;;;;;;;15.70;11.10;;;15.50;97.30;;;;;;5032934;28;20909;-85
2022/06/05 00:10:47;;;;;;;18.57;11.87;;;15.50;97.30;;;;;;5033038;28;20454;-85
2022/06/05 00:13:21;;;;;;;19.07;12.30;;;15.40;97.30;;;;;;5033199;28;20767;-85
2022/06/05 00:15:47;;;;;;;14.70;11.60;;;15.40;97.30;;;;;;5033578;28;20837;-85
2022/06/05 00:18:13;;;;;;;18.50;11.10;;;15.40;97.30;;;;;;5033310;28;20514;-85
2022/06/05 00:20:42;;;;;;;16.10;12.13;;;15.30;97.30;;;;;;5034409;28;20184;-85
2022/06/05 00:23:08;;;;;;;18.47;12.20;;;15.30;97.30;;;;;;5032676;28;20467;-85
2022/06/05 00:25:51;;;;;;;27.70;13.30;;;15.30;97.30;;;;;;5032666;28;20905;-85
2022/06/05 00:28:29;;;;;;;19.13;12.43;;;15.20;97.30;;;;;;5032530;28;20411;-85
2022/06/05 00:31:15;;;;;;;19.43;12.53;;;15.20;97.30;;;;;;5033799;28;20411;-85
2022/06/05 00:33:42;;;;;;;15.30;11.23;;;15.20;97.30;;;;;;5032506;28;20411;-85
2022/06/05 00:36:07;;;;;;;16.60;11.97;;;15.20;97.30;;;;;;5032733;28;20430;-85
2022/06/05 00:38:46;;;;;;;16.40;11.67;;;15.20;97.30;;;;;;5017520;28;20420;-84
2022/06/05 00:41:42;;;;;;;15.83;11.40;;;15.20;97.30;;;;;;5016206;28;20172;-85
2022/06/05 00:44:13;;;;;;;15.07;11.57;;;15.20;97.30;;;;;;5015719;28;20455;-85
2022/06/05 00:46:41;;;;;;;15.43;11.43;;;15.20;97.30;;;;;;5016265;28;20422;-85
2022/06/05 00:49:07;;;;;;;13.90;11.07;;;15.20;97.30;;;;;;5016023;28;20410;-85
2022/06/05 00:51:32;;;;;;;18.30;11.47;;;15.20;97.30;;;;;;5015927;28;20408;-85
2022/06/05 00:53:58;;;;;;;13.57;10.87;;;15.20;97.30;;;;;;5015704;28;20530;-85
2022/06/05 00:56:24;;;;;;;15.27;10.70;;;15.10;97.30;;;;;;5015631;28;20207;-85
2022/06/05 00:58:52;;;;;;;19.07;11.03;;;15.10;97.30;;;;;;5015699;28;20235;-85
2022/06/05 01:01:25;;;;;;;20.97;10.17;;;15.10;97.30;;;;;;5016088;28;20223;-86
2022/06/05 01:03:51;;;;;;;16.73;11.10;;;15.10;97.30;;;;;;5016458;28;20427;-82
2022/06/05 01:06:17;;;;;;;15.10;10.80;;;15.10;97.30;;;;;;5015840;28;20979;-83
2022/06/05 01:08:43;;;;;;;13.17;10.17;;;15.10;97.30;;;;;;5015939;28;20411;-82
2022/06/05 01:11:22;;;;;;;13.10;10.80;;;15.10;97.30;;;;;;5015779;28;20180;-82
2022/06/05 01:14:07;;;;;;;19.80;12.40;;;15.00;97.30;;;;;;5014889;28;20229;-83
2022/06/05 01:16:51;;;;;;;15.90;10.70;;;15.00;97.30;;;;;;5015604;28;20447;-83
2022/06/05 01:19:53;;;;;;;15.10;10.80;;;15.00;97.30;;;;;;5015343;28;21154;-83
2022/06/05 01:22:32;;;;;;;16.03;11.00;;;15.00;97.30;;;;;;5015031;28;20466;-83
2022/06/05 01:25:32;;;;;;;17.70;10.70;;;15.00;97.30;;;;;;5015025;28;20480;-83
2022/06/05 01:28:06;;;;;;;12.53;10.07;;;15.00;97.30;;;;;;5015095;28;20933;-83
2022/06/05 01:30:38;;;;;;;16.80;10.20;;;15.00;97.30;;;;;;5014803;28;20422;-83
2022/06/05 01:33:15;;;;;;;13.67;10.10;;;15.00;97.30;;;;;;5014976;28;20954;-83
2022/06/05 01:36:03;;;;;;;18.23;11.70;;;15.00;97.30;;;;;;5014880;28;20492;-82
2022/06/05 01:38:43;;;;;;;15.97;11.37;;;15.00;97.30;;;;;;5014822;28;20426;-83
2022/06/05 01:41:17;;;;;;;17.00;11.23;;;15.00;97.30;;;;;;5032573;28;20415;-83
2022/06/05 01:43:49;;;;;;;17.53;10.53;;;15.00;97.30;;;;;;5014882;28;20414;-83
2022/06/05 01:46:29;;;;;;;16.27;9.80;;;14.90;97.30;;;;;;5015099;28;20443;-82
2022/06/05 01:49:12;;;;;;;15.70;10.87;;;14.90;97.30;;;;;;5014785;28;20784;-83
2022/06/05 01:51:54;;;;;;;13.13;10.10;;;14.90;97.30;;;;;;5015029;28;20793;-83
2022/06/05 01:54:36;;;;;;;15.00;10.77;;;14.90;97.30;;;;;;5014857;28;20804;-83
2022/06/05 01:57:06;;;;;;;14.93;10.53;;;14.80;97.30;;;;;;5014808;28;20831;-83
2022/06/05 01:59:43;;;;;;;16.50;10.80;;;14.80;97.30;;;;;;5014411;28;20803;-83
2022/06/05 02:02:14;;;;;;;15.97;11.10;;;14.80;97.30;;;;;;5014436;28;20458;-82
2022/06/05 02:04:46;;;;;;;14.77;11.10;;;14.80;97.30;;;;;;5014642;28;20415;-83
2022/06/05 02:07:13;;;;;;;13.67;10.10;;;14.80;97.30;;;;;;5014399;28;20439;-83
2022/06/05 02:09:55;;;;;;;12.90;10.03;;;14.70;97.30;;;;;;5014361;28;20422;-82
2022/06/05 02:12:22;;;;;;;17.73;10.73;;;14.70;97.30;;;;;;5014461;28;20454;-82
2022/06/05 02:14:48;;;;;;;14.13;10.27;;;14.70;97.30;;;;;;5014107;28;20826;-82
2022/06/05 02:17:14;;;;;;;22.30;11.57;;;14.70;97.30;;;;;;5014351;28;20445;-83
2022/06/05 02:19:40;;;;;;;14.60;9.90;;;14.70;97.30;;;;;;5031859;28;20212;-83
2022/06/05 02:22:29;;;;;;;15.27;10.23;;;14.70;97.30;;;;;;5013951;28;20529;-82
2022/06/05 02:24:55;;;;;;;15.33;10.93;;;14.70;97.30;;;;;;5013054;28;20412;-82
2022/06/05 02:27:23;;;;;;;20.97;10.67;;;14.70;97.30;;;;;;5013973;28;20449;-82
2022/06/05 02:29:50;;;;;;;15.43;10.03;;;14.70;97.30;;;;;;5013739;28;20426;-82
2022/06/05 02:32:37;;;;;;;15.73;9.97;;;14.70;97.30;;;;;;5013862;28;20454;-82
2022/06/05 02:35:14;;;;;;;17.10;9.60;;;14.70;97.30;;;;;;5013761;28;20427;-83
2022/06/05 02:38:14;;;;;;;15.13;9.67;;;14.70;97.30;;;;;;5021946;28;20525;-83
2022/06/05 02:40:58;;;;;;;17.37;11.13;;;14.70;97.30;;;;;;5030180;28;20419;-83
2022/06/05 02:43:40;;;;;;;16.97;10.67;;;14.70;97.30;;;;;;5030326;28;20459;-83
2022/06/05 02:46:25;;;;;;;14.73;10.77;;;14.70;97.30;;;;;;5031942;28;20500;-82
2022/06/05 02:49:01;;;;;;;14.83;9.07;;;14.60;97.30;;;;;;5030189;28;20493;-83
2022/06/05 02:51:31;;;;;;;19.17;10.30;;;14.60;97.30;;;;;;5030402;28;20924;-82
2022/06/05 02:53:58;;;;;;;18.93;9.00;;;14.60;97.30;;;;;;5030005;28;20466;-83
2022/06/05 02:56:29;;;;;;;15.60;11.00;;;14.60;97.30;;;;;;5030381;28;20916;-83
2022/06/05 02:58:58;;;;;;;17.83;10.23;;;14.60;97.30;;;;;;5030108;28;20510;-83
2022/06/05 03:04:08;;;;;;;15.13;10.40;;;14.50;97.30;;;;;;5031284;28;20958;-83
2022/06/05 03:06:41;;;;;;;16.50;11.20;;;14.50;97.30;;;;;;5029872;28;20438;-83
2022/06/05 03:09:09;;;;;;;18.70;12.07;;;14.50;97.30;;;;;;5030029;28;20181;-82
2022/06/05 03:11:35;;;;;;;14.00;10.57;;;14.50;97.30;;;;;;5029897;28;20472;-83
2022/06/05 03:14:02;;;;;;;20.43;10.00;;;14.40;97.30;;;;;;5030516;28;20521;-83
2022/06/05 03:16:33;;;;;;;14.90;10.63;;;14.40;97.30;;;;;;5031499;28;20200;-82
2022/06/05 03:19:02;;;;;;;17.70;11.27;;;14.40;97.30;;;;;;5031417;28;21062;-83
2022/06/05 03:21:34;;;;;;;14.30;10.80;;;14.40;97.30;;;;;;5033199;28;20469;-83
2022/06/05 03:24:00;;;;;;;15.60;10.00;;;14.30;97.30;;;;;;5032809;28;20430;-82
2022/06/05 03:26:26;;;;;;;16.37;10.70;;;14.30;97.30;;;;;;5029728;28;20538;-82
2022/06/05 03:28:51;;;;;;;13.43;9.40;;;14.30;97.30;;;;;;5030581;28;21004;-83
2022/06/05 03:31:17;;;;;;;13.50;9.50;;;14.30;97.30;;;;;;5029743;28;20180;-83
2022/06/05 03:33:43;;;;;;;13.63;9.13;;;14.30;97.30;;;;;;5029646;28;20321;-82
2022/06/05 03:36:11;;;;;;;14.33;9.90;;;14.30;97.30;;;;;;5029338;28;20206;-83
2022/06/05 03:38:37;;;;;;;15.00;9.47;;;14.20;97.30;;;;;;5014807;28;20573;-82
2022/06/05 03:41:04;;;;;;;14.90;9.37;;;14.20;97.30;;;;;;5013282;28;20411;-83
2022/06/05 03:43:29;;;;;;;14.90;10.30;;;14.20;97.30;;;;;;5013182;28;20415;-83
2022/06/05 03:46:03;;;;;;;14.63;9.43;;;14.20;97.30;;;;;;5012875;28;20435;-82
2022/06/05 03:48:29;;;;;;;11.80;8.53;;;14.10;97.30;;;;;;5013339;28;20207;-82
2022/06/05 03:50:54;;;;;;;13.27;9.70;;;14.10;97.30;;;;;;5012833;28;20410;-82
2022/06/05 03:53:20;;;;;;;14.80;9.37;;;14.20;97.30;;;;;;5013189;28;20741;-82
2022/06/05 03:55:45;;;;;;;14.10;8.97;;;14.20;97.30;;;;;;5013116;28;20187;-82
2022/06/05 03:58:11;;;;;;;13.53;8.60;;;14.20;97.30;;;;;;5013528;28;20228;-82
2022/06/05 04:00:36;;;;;;;18.63;9.70;;;14.10;97.30;;;;;;5015734;28;20181;-84
2022/06/05 04:03:02;;;;;;;15.07;9.60;;;14.20;97.30;;;;;;5014770;28;20197;-82
2022/06/05 04:05:30;;;;;;;13.93;8.87;;;14.10;97.30;;;;;;5013209;28;20183;-82
2022/06/05 04:07:55;;;;;;;13.37;8.87;;;14.20;97.30;;;;;;5013479;28;20423;-82
2022/06/05 04:10:22;;;;;;;20.50;9.00;;;14.20;97.30;;;;;;5013617;28;20765;-82
2022/06/05 04:12:48;;;;;;;17.50;10.50;;;14.20;97.30;;;;;;5014006;28;20180;-82
2022/06/05 04:15:14;;;;;;;14.70;9.50;;;14.20;97.30;;;;;;5013167;28;20424;-82
2022/06/05 04:17:42;;;;;;;18.20;8.70;;;14.20;97.30;;;;;;5031876;28;20431;-82
2022/06/05 04:20:08;;;;;;;16.37;9.20;;;14.20;97.30;;;;;;5013423;28;20801;-82
2022/06/05 04:22:35;;;;;;;14.03;9.17;;;14.20;97.30;;;;;;5013660;28;20516;-82
2022/06/05 04:25:03;;;;;;;14.67;9.63;;;14.20;97.30;;;;;;5013748;28;20627;-82
2022/06/05 04:27:29;;;;;;;15.30;8.53;;;14.30;97.30;;;;;;5013932;28;20430;-82
2022/06/05 04:29:54;;;;;;;13.30;8.10;;;14.30;97.30;;;;;;5013805;28;20419;-82
2022/06/05 04:32:20;;;;;;;11.93;8.40;;;14.30;97.30;;;;;;5014374;28;20188;-82
2022/06/05 04:34:45;;;;;;;14.17;9.33;;;14.40;97.30;;;;;;5014376;28;20291;-82
2022/06/05 04:37:11;;;;;;;13.77;8.47;;;14.40;97.30;;;;;;5017336;28;20701;-82
2022/06/05 04:39:37;;;;;;;13.30;8.47;;;14.40;97.30;;;;;;5030231;28;20208;-82
2022/06/05 04:42:03;;;;;;;12.53;8.00;;;14.50;97.30;;;;;;5030523;28;20200;-82
2022/06/05 04:44:28;;;;;;;13.53;7.90;;;14.50;97.30;;;;;;5030425;28;20176;-82
2022/06/05 04:46:54;;;;;;;13.07;8.13;;;14.50;97.30;;;;;;5030405;28;20438;-82
2022/06/05 04:49:20;;;;;;;10.60;7.30;;;14.60;97.30;;;;;;5033329;28;20180;-82
2022/06/05 04:51:45;;;;;;;11.63;8.73;;;14.60;97.30;;;;;;5033426;28;20184;-82
2022/06/05 04:54:14;;;;;;;12.40;7.73;;;14.70;97.30;;;;;;5033475;28;20519;-82
2022/06/05 04:56:40;;;;;;;12.60;7.70;;;14.70;97.30;;;;;;5035290;28;20220;-82
2022/06/05 04:59:06;;;;;;;12.07;8.37;;;14.80;97.30;;;;;;5033977;28;21014;-80
2022/06/05 05:01:40;;;;;;;13.00;7.57;;;14.80;97.30;;;;;;5035779;28;20208;-80
2022/06/05 05:04:11;;;;;;;11.47;7.83;;;14.80;97.30;;;;;;5040176;28;20204;-80
2022/06/05 05:06:45;;;;;;;10.63;7.77;;;14.90;97.30;;;;;;5039387;28;20493;-80
2022/06/05 05:09:13;;;;;;;13.13;8.30;;;15.00;97.30;;;;;;5039897;28;20454;-80
2022/06/05 05:11:43;;;;;;;10.33;7.40;;;15.00;97.30;;;;;;5039457;28;20439;-81
2022/06/05 05:14:13;;;;;;;14.03;7.67;;;15.00;97.30;;;;;;5040685;28;20817;-80
2022/06/05 05:16:43;;;;;;;11.23;7.00;;;15.00;97.30;;;;;;5039058;28;20955;-81
2022/06/05 05:19:12;;;;;;;10.50;6.93;;;15.10;97.30;;;;;;5039264;28;20419;-80
2022/06/05 05:21:38;;;;;;;12.43;7.33;;;15.10;97.30;;;;;;5039702;28;20485;-80
2022/06/05 05:24:04;;;;;;;12.93;7.50;;;15.20;97.30;;;;;;5038424;28;20419;-80
2022/06/05 05:26:32;;;;;;;13.60;8.67;;;15.20;97.30;;;;;;5039704;28;20956;-81
2022/06/05 05:29:05;;;;;;;12.33;7.47;;;15.30;97.30;;;;;;5039544;28;20423;-81
2022/06/05 05:31:45;;;;;;;12.07;7.77;;;15.30;97.30;;;;;;5040248;28;20427;-80
2022/06/05 05:34:34;;;;;;;15.87;8.60;;;15.40;97.30;;;;;;5040160;28;20422;-80
2022/06/05 05:37:03;;;;;;;13.33;8.17;;;15.40;97.30;;;;;;5029200;28;20443;-80
2022/06/05 05:42:34;;;;;;;16.87;7.57;;;15.50;97.30;;;;;;5040697;28;20465;-81
2022/06/05 05:45:05;;;;;;;11.47;7.77;;;15.60;97.30;;;;;;5039821;28;20423;-81
2022/06/05 05:47:32;;;;;;;10.17;7.37;;;15.70;97.30;;;;;;5039338;28;20613;-80
2022/06/05 05:50:04;;;;;;;15.23;8.30;;;15.70;97.30;;;;;;5039860;28;20423;-81
2022/06/05 05:52:32;;;;;;;13.60;8.40;;;15.80;97.30;;;;;;5039037;28;20431;-81
2022/06/05 05:54:59;;;;;;;12.80;8.47;;;15.90;97.30;;;;;;5040500;28;20457;-81
2022/06/05 05:57:25;;;;;;;14.33;8.10;;;15.90;97.30;;;;;;5038473;28;20522;-82
2022/06/05 05:59:53;;;;;;;10.60;6.90;;;16.00;97.30;;;;;;5039385;28;20510;-80
2022/06/05 06:02:26;;;;;;;12.73;8.67;;;16.10;97.30;;;;;;5040476;28;20211;-81
2022/06/05 06:04:56;;;;;;;10.37;7.90;;;16.10;97.30;;;;;;5040095;28;20450;-81
2022/06/05 06:07:23;;;;;;;11.77;8.50;;;16.20;97.30;;;;;;5039092;28;20439;-81
2022/06/05 06:09:53;;;;;;;14.23;8.93;;;16.30;97.30;;;;;;5039956;28;20491;-81
2022/06/05 06:12:25;;;;;;;10.60;8.63;;;16.30;97.30;;;;;;5039985;28;20427;-81
2022/06/05 06:14:51;;;;;;;11.67;8.80;;;16.40;97.30;;;;;;5040323;28;20522;-82
2022/06/05 06:17:17;;;;;;;10.50;8.30;;;16.50;97.30;;;;;;5040147;28;20451;-81
2022/06/05 06:19:43;;;;;;;10.50;8.30;;;16.50;97.30;;;;;;5039810;28;20432;-81
2022/06/05 06:22:09;;;;;;;14.00;9.30;;;16.60;97.30;;;;;;5031495;28;20973;-82
2022/06/05 06:24:34;;;;;;;12.67;9.00;;;16.70;97.30;;;;;;5027171;28;20427;-83
2022/06/05 06:27:01;;;;;;;13.60;8.73;;;16.80;97.30;;;;;;5024699;28;20211;-82
2022/06/05 06:29:26;;;;;;;13.00;8.77;;;16.90;97.30;;;;;;5023045;28;20271;-83
2022/06/05 06:31:52;;;;;;;12.77;8.47;;;17.00;97.30;;;;;;5016708;28;20927;-82
2022/06/05 06:34:18;;;;;;;15.23;9.53;;;17.00;97.30;;;;;;5025795;28;20274;-82
2022/06/05 06:36:43;;;;;;;14.83;9.10;;;17.10;97.30;;;;;;5027916;28;20669;-83
2022/06/05 06:39:09;;;;;;;15.03;9.37;;;17.20;97.30;;;;;;5022551;28;20180;-82
2022/06/05 06:41:35;;;;;;;13.23;9.97;;;17.30;97.30;;;;;;5016178;28;20204;-83
2022/06/05 06:44:04;;;;;;;11.80;9.13;;;17.40;97.30;;;;;;5024572;28;20180;-82
2022/06/05 06:46:31;;;;;;;13.67;9.77;;;17.40;97.30;;;;;;5033466;28;20521;-83
2022/06/05 06:48:57;;;;;;;12.50;9.60;;;17.50;97.30;;;;;;5044447;28;20438;-83
2022/06/05 06:51:23;;;;;;;17.70;9.73;;;17.60;97.30;;;;;;5017100;28;20412;-82
2022/06/05 06:53:49;;;;;;;16.43;10.53;;;17.70;97.30;;;;;;5014541;28;20427;-85
2022/06/05 06:56:18;;;;;;;16.63;10.23;;;17.80;97.30;;;;;;5013417;28;20196;-85
2022/06/05 06:58:45;;;;;;;16.70;11.00;;;17.90;97.30;;;;;;5012803;28;20221;-85
2022/06/05 07:01:12;;;;;;;13.67;9.93;;;18.00;97.30;;;;;;5010480;28;20412;-85
2022/06/05 07:03:38;;;;;;;18.87;10.70;;;18.00;97.30;;;;;;5010621;28;20845;-85
2022/06/05 07:06:07;;;;;;;15.87;10.33;;;18.10;97.30;;;;;;5010333;28;20440;-85
2022/06/05 07:08:33;;;;;;;14.33;11.07;;;18.20;97.30;;;;;;5009938;28;20934;-85
2022/06/05 07:10:59;;;;;;;17.80;10.30;;;18.30;97.30;;;;;;5022285;28;20460;-85
2022/06/05 07:13:25;;;;;;;13.70;11.20;;;18.40;97.30;;;;;;5012575;28;20602;-85
2022/06/05 07:15:50;;;;;;;14.90;10.50;;;18.50;97.30;;;;;;5012855;28;20524;-85
2022/06/05 07:18:17;;;;;;;13.53;11.30;;;18.60;97.30;;;;;;5011042;28;20670;-85
2022/06/05 07:20:43;;;;;;;15.20;11.50;;;18.70;97.30;;;;;;5011157;28;20478;-85
2022/06/05 07:23:09;;;;;;;16.07;11.50;;;18.80;97.30;;;;;;5011470;28;20950;-85
2022/06/05 07:25:36;;;;;;;15.83;11.67;;;18.90;97.30;;;;;;5013181;28;20427;-84
2022/06/05 07:28:02;;;;;;;14.10;11.17;;;19.00;97.30;;;;;;5009245;28;20952;-85
2022/06/05 07:30:28;;;;;;;14.40;11.47;;;19.10;97.30;;;;;;5018506;28;20415;-85
2022/06/05 07:32:54;;;;;;;17.60;10.80;;;19.20;97.30;;;;;;5024018;28;20782;-84
2022/06/05 07:35:20;;;;;;;13.53;11.03;;;19.30;97.30;;;;;;5013721;28;20547;-83
2022/06/05 07:37:46;;;;;;;15.97;11.00;;;19.40;97.30;;;;;;5022614;28;20200;-83
2022/06/05 07:40:13;;;;;;;14.50;11.20;;;19.50;97.30;;;;;;5010571;28;20767;-83
2022/06/05 07:42:41;;;;;;;14.80;10.70;;;19.60;97.30;;;;;;5015466;28;20463;-83
2022/06/05 07:45:08;;;;;;;19.93;11.50;;;19.70;97.30;;;;;;5015021;28;20420;-83
2022/06/05 07:47:34;;;;;;;15.27;11.10;;;19.80;97.30;;;;;;5010980;28;20514;-83
2022/06/05 07:50:00;;;;;;;15.73;11.30;;;19.90;97.30;;;;;;5015799;28;20423;-83
2022/06/05 07:55:11;;;;;;;14.67;12.00;;;20.00;97.30;;;;;;5015019;28;20248;-83
2022/06/05 07:57:37;;;;;;;13.53;10.80;;;20.10;97.30;;;;;;5019430;28;20448;-84
2022/06/05 08:00:07;;;;;;;18.03;12.37;;;20.20;97.30;;;;;;5012984;28;20545;-83
2022/06/05 08:02:34;;;;;;;16.17;12.50;;;20.30;97.30;;;;;;5016041;28;20467;-83
2022/06/05 08:05:02;;;;;;;14.00;11.03;;;20.40;97.30;;;;;;5016000;28;20511;-83
2022/06/05 08:07:31;;;;;;;15.07;10.97;;;20.50;97.30;;;;;;5029401;28;20443;-83
2022/06/05 08:09:58;;;;;;;13.40;11.00;;;20.60;97.30;;;;;;5010738;28;20416;-83
2022/06/05 08:12:27;;;;;;;13.27;10.20;;;20.70;97.30;;;;;;5016003;28;20416;-83
2022/06/05 08:14:53;;;;;;;19.03;10.50;;;20.70;97.30;;;;;;5013763;28;20805;-84
2022/06/05 08:17:31;;;;;;;12.40;9.83;;;20.80;97.30;;;;;;5011483;28;20953;-83
2022/06/05 08:19:57;;;;;;;14.10;10.13;;;20.90;97.30;;;;;;5014982;28;20794;-83
2022/06/05 08:22:24;;;;;;;11.10;9.20;;;21.10;97.30;;;;;;5033997;28;20560;-83
2022/06/05 08:24:52;;;;;;;10.57;9.33;;;21.20;97.30;;;;;;5018576;28;20420;-83
2022/06/05 08:27:20;;;;;;;13.40;9.40;;;21.20;97.30;;;;;;5026173;28;20434;-83
2022/06/05 08:29:45;;;;;;;11.20;8.97;;;21.30;97.30;;;;;;5015721;28;20416;-83
2022/06/05 08:32:14;;;;;;;13.00;9.10;;;21.40;97.30;;;;;;5019373;28;20716;-83
2022/06/05 08:34:52;;;;;;;12.90;9.57;;;21.60;97.30;;;;;;5012740;28;20192;-83
2022/06/05 08:43:25;;;;;;;10.87;8.33;;;22.00;95.30;;;;;;5018253;28;20548;-83
2022/06/05 08:46:24;;;;;;;11.47;8.67;;;22.00;95.10;;;;;;5012448;28;20995;-83
2022/06/05 08:49:14;;;;;;;12.17;9.70;;;22.10;95.70;;;;;;5012028;28;20423;-83
2022/06/05 08:51:53;;;;;;;11.10;8.37;;;22.20;96.00;;;;;;5020547;28;20547;-85
2022/06/05 08:54:33;;;;;;;9.83;8.20;;;22.40;94.80;;;;;;5024475;28;20985;-83
2022/06/05 08:57:04;;;;;;;9.93;8.73;;;22.40;93.80;;;;;;5007449;28;20536;-83
2022/06/05 09:00:03;;;;;;;11.20;8.70;;;22.50;93.80;;;;;;5027085;28;20466;-83
2022/06/05 09:02:52;;;;;;;9.20;8.13;;;22.50;93.50;;;;;;5026732;28;20458;-83
2022/06/05 09:05:24;;;;;;;10.40;8.97;;;22.50;94.00;;;;;;5018516;28;20422;-83
2022/06/05 09:08:03;;;;;;;10.33;8.50;;;22.60;94.60;;;;;;5015548;28;20434;-83
2022/06/05 09:11:03;;;;;;;9.60;8.23;;;22.70;95.00;;;;;;5015360;28;20403;-83
2022/06/05 09:13:57;;;;;;;9.97;8.43;;;22.70;93.70;;;;;;5015371;28;20447;-83
2022/06/05 09:16:29;;;;;;;10.13;8.50;;;22.80;93.60;;;;;;5029241;28;20437;-84
2022/06/05 09:18:55;;;;;;;10.53;8.37;;;22.80;93.60;;;;;;5030003;28;20943;-84
2022/06/05 09:21:36;;;;;;;10.33;8.13;;;22.90;93.20;;;;;;5027657;28;20882;-84
2022/06/05 09:24:14;;;;;;;10.50;8.27;;;22.90;93.40;;;;;;5018755;28;20919;-84
2022/06/05 09:26:43;;;;;;;11.57;8.73;;;22.90;92.90;;;;;;5029197;28;20801;-84
2022/06/05 09:29:15;;;;;;;11.27;8.07;;;22.90;92.40;;;;;;5015749;28;20463;-84
2022/06/05 09:32:06;;;;;;;11.40;8.67;;;22.90;92.90;;;;;;5016016;28;20442;-84
2022/06/05 09:34:46;;;;;;;12.27;8.73;;;22.90;92.90;;;;;;5030405;28;20453;-84
2022/06/05 09:37:40;;;;;;;9.33;8.43;;;23.00;92.70;;;;;;5035194;28;20483;-84
2022/06/05 09:40:12;;;;;;;11.93;9.87;;;23.10;93.50;;;;;;5025557;28;20495;-83
2022/06/05 09:43:01;;;;;;;12.53;8.77;;;23.20;92.80;;;;;;5034631;28;20533;-85
2022/06/05 09:45:51;;;;;;;10.97;7.47;;;23.30;93.00;;;;;;5006055;28;20859;-84
2022/06/05 09:48:45;;;;;;;9.33;8.00;;;23.40;93.50;;;;;;5034596;28;20422;-84
2022/06/05 09:51:14;;;;;;;8.57;8.10;;;23.60;93.30;;;;;;5034618;28;20489;-85
2022/06/05 09:53:47;;;;;;;10.40;8.50;;;23.80;91.90;;;;;;5034382;28;20928;-84
2022/06/05 09:56:34;;;;;;;10.57;8.57;;;23.90;91.90;;;;;;5034554;28;20431;-84
2022/06/05 09:59:22;;;;;;;8.73;7.70;;;24.00;91.70;;;;;;5034191;28;20458;-84
2022/06/05 10:01:59;;;;;;;9.23;8.10;;;24.00;92.10;;;;;;5034194;28;20457;-85
2022/06/05 10:04:31;;;;;;;9.43;8.90;;;24.20;92.70;;;;;;5033938;28;20405;-84
2022/06/05 10:07:08;;;;;;;9.67;7.83;;;24.30;91.90;;;;;;5034546;28;20453;-85
2022/06/05 10:09:40;;;;;;;9.50;8.50;;;24.40;91.30;;;;;;5033828;28;20441;-84
2022/06/05 10:12:14;;;;;;;11.33;8.43;;;24.50;90.60;;;;;;5033996;28;20425;-84
2022/06/05 10:14:50;;;;;;;9.33;8.40;;;24.50;90.40;;;;;;5033840;28;20422;-84
2022/06/05 10:17:30;;;;;;;8.87;8.40;;;24.50;90.30;;;;;;5034060;28;20476;-85
2022/06/05 10:20:18;;;;;;;9.23;8.10;;;24.60;90.60;;;;;;5052142;28;20434;-85
2022/06/05 10:22:52;;;;;;;12.63;10.60;;;24.60;92.00;;;;;;5034904;28;20454;-85
2022/06/05 10:25:46;;;;;;;11.77;8.77;;;24.80;91.80;;;;;;5039680;28;20698;-85
2022/06/05 10:28:28;;;;;;;11.27;8.50;;;24.80;91.00;;;;;;5034316;28;20509;-83
2022/06/05 10:31:01;;;;;;;9.10;8.43;;;24.90;91.60;;;;;;5052255;28;20581;-84
2022/06/05 10:33:48;;;;;;;8.90;8.40;;;24.90;91.20;;;;;;5033684;28;20411;-84
2022/06/05 10:36:26;;;;;;;8.70;8.30;;;25.00;91.20;;;;;;5033798;28;20496;-83
2022/06/05 10:39:32;;;;;;;9.53;8.70;;;25.00;90.60;;;;;;4994669;28;20956;-85
2022/06/05 10:41:58;;;;;;;10.13;8.60;;;25.10;90.60;;;;;;4994191;28;20466;-84
2022/06/05 10:44:44;;;;;;;9.83;9.07;;;25.20;90.10;;;;;;4994132;28;20941;-84
2022/06/05 10:47:12;;;;;;;13.23;8.50;;;25.30;90.70;;;;;;4994098;28;20483;-84
2022/06/05 10:50:07;;;;;;;11.87;8.10;;;25.40;90.40;;;;;;4993695;28;20431;-85
2022/06/05 10:52:45;;;;;;;9.37;8.30;;;25.50;90.20;;;;;;4994437;28;20412;-84
2022/06/05 10:55:34;;;;;;;7.33;6.97;;;25.60;89.50;;;;;;4994085;28;20787;-84
2022/06/05 10:58:21;;;;;;;8.73;8.23;;;25.80;89.40;;;;;;4993700;28;20404;-85
2022/06/05 11:00:50;;;;;;;10.43;8.20;;;25.80;88.80;;;;;;4994093;28;20945;-85
2022/06/05 11:03:34;;;;;;;9.83;7.10;;;25.90;87.50;;;;;;4994108;28;20878;-85
2022/06/05 11:06:21;;;;;;;8.23;7.30;;;26.00;88.00;;;;;;4994810;28;20490;-84
2022/06/05 11:09:14;;;;;;;12.10;7.53;;;26.10;88.50;;;;;;4993791;28;20428;-84
2022/06/05 11:15:11;;;;;;;15.20;7.40;;;26.20;87.50;;;;;;5013665;28;20824;-84
2022/06/05 11:17:49;;;;;;;8.50;6.60;;;26.30;88.00;;;;;;5012328;28;20451;-84
2022/06/05 11:20:22;;;;;;;8.50;7.03;;;26.40;88.40;;;;;;5021924;28;20431;-84
2022/06/05 11:22:56;;;;;;;7.93;7.57;;;26.40;88.20;;;;;;5032710;28;20992;-84
2022/06/05 11:25:53;;;;;;;8.43;7.13;;;26.40;88.30;;;;;;5030822;28;20441;-85
2022/06/05 11:28:31;;;;;;;7.20;6.73;;;26.40;87.80;;;;;;5021027;28;20419;-85
2022/06/05 11:31:06;;;;;;;7.60;7.20;;;26.40;87.70;;;;;;5019336;28;20517;-85
2022/06/05 11:33:35;;;;;;;7.87;7.10;;;26.40;87.20;;;;;;5020893;28;20403;-85
2022/06/05 11:36:27;;;;;;;7.00;5.90;;;26.50;88.20;;;;;;5011094;28;20439;-85
2022/06/05 11:39:33;;;;;;;7.67;6.50;;;26.60;87.80;;;;;;5019250;28;20407;-84
2022/06/05 11:42:16;;;;;;;10.20;6.80;;;26.80;87.10;;;;;;5021842;28;20990;-84
2022/06/05 11:44:52;;;;;;;7.57;6.57;;;26.90;85.90;;;;;;5021748;28;20943;-84
2022/06/05 11:47:40;;;;;;;6.60;6.20;;;26.90;84.80;;;;;;5019335;28;21007;-84
2022/06/05 11:50:33;;;;;;;8.13;6.50;;;27.00;84.60;;;;;;5011847;28;21024;-84
2022/06/05 11:53:22;;;;;;;14.33;7.03;;;27.10;84.50;;;;;;5021384;28;20494;-84
2022/06/05 11:56:16;;;;;;;8.00;6.10;;;27.10;84.50;;;;;;5016934;28;20510;-84
2022/06/05 11:58:52;;;;;;;6.30;5.60;;;27.20;85.50;;;;;;5014360;28;20481;-84
2022/06/05 12:01:23;;;;;;;6.80;6.40;;;27.30;84.90;;;;;;5025682;28;20932;-84
2022/06/05 12:04:14;;;;;;;7.50;6.30;;;27.30;84.70;;;;;;5020430;28;20423;-84
2022/06/05 12:06:49;;;;;;;6.10;5.80;;;27.30;85.10;;;;;;5022007;28;20430;-84
2022/06/05 12:09:42;;;;;;;6.40;6.00;;;27.40;85.30;;;;;;5020132;28;20928;-84
2022/06/05 12:12:32;;;;;;;6.97;6.10;;;27.40;84.90;;;;;;5013153;28;20449;-85
2022/06/05 12:15:16;;;;;;;6.83;6.17;;;27.30;84.70;;;;;;5026454;28;20954;-84
2022/06/05 12:17:44;;;;;;;7.03;6.27;;;27.30;84.60;;;;;;5023523;28;20486;-84
2022/06/05 12:20:23;;;;;;;8.00;6.13;;;27.20;84.70;;;;;;5033321;28;20485;-84
2022/06/05 12:23:16;;;;;;;6.60;6.20;;;27.20;85.20;;;;;;5031575;28;20503;-85
2022/06/05 12:26:06;;;;;;;7.60;6.53;;;27.20;85.40;;;;;;5025771;28;20441;-85
2022/06/05 12:28:39;;;;;;;6.70;6.30;;;27.20;85.40;;;;;;5026613;28;20908;-85
2022/06/05 12:31:20;;;;;;;6.70;6.30;;;27.30;85.70;;;;;;5026103;28;20461;-84
2022/06/05 12:34:03;;;;;;;6.73;6.40;;;27.30;83.30;;;;;;5035107;28;20430;-85
2022/06/05 12:36:52;;;;;;;7.00;6.17;;;27.40;84.40;;;;;;5019919;28;20816;-84
2022/06/05 12:39:26;;;;;;;7.03;6.40;;;27.40;84.70;;;;;;5031836;28;20855;-85
2022/06/05 12:42:25;;;;;;;7.03;6.13;;;27.50;84.40;;;;;;5019378;28;20490;-85
2022/06/05 12:44:55;;;;;;;7.40;6.03;;;27.60;83.70;;;;;;5026250;28;20913;-85
2022/06/05 12:47:39;;;;;;;6.80;5.53;;;27.60;84.30;;;;;;5030934;28;20508;-84
2022/06/05 12:50:35;;;;;;;10.50;6.57;;;27.80;85.00;;;;;;5016561;28;20417;-84
2022/06/05 12:53:10;;;;;;;5.70;5.40;;;27.90;84.80;;;;;;5018536;28;20423;-84
2022/06/05 12:56:13;;;;;;;6.33;5.97;;;28.00;85.30;;;;;;5044614;28;20509;-85
2022/06/05 12:59:12;;;;;;;8.60;6.37;;;28.10;83.90;;;;;;5018438;28;20577;-85
2022/06/05 13:02:06;;;;;;;9.90;5.63;;;28.20;83.70;;;;;;5014251;28;20423;-85
2022/06/05 13:04:51;;;;;;;5.77;5.43;;;28.20;83.00;;;;;;5018923;28;20484;-85
2022/06/05 13:07:22;;;;;;;10.30;6.83;;;28.30;81.50;;;;;;5041353;28;20811;-85
2022/06/05 13:09:51;;;;;;;8.33;6.90;;;28.20;81.80;;;;;;5016150;28;20422;-85
2022/06/05 13:12:32;;;;;;;11.10;6.00;;;28.20;82.40;;;;;;5018868;28;20458;-85
2022/06/05 13:15:23;;;;;;;5.63;5.33;;;28.20;81.00;;;;;;5036634;28;20426;-83
2022/06/05 13:17:58;;;;;;;6.57;6.10;;;28.20;81.10;;;;;;5022796;28;20447;-83
2022/06/05 13:21:12;;;;;;;6.40;5.23;;;28.10;82.20;;;;;;5016661;28;20498;-83
2022/06/05 13:23:44;;;;;;;5.90;5.60;;;28.00;80.30;;;;;;5009406;28;20470;-83
2022/06/05 13:26:32;;;;;;;8.50;5.63;;;28.00;81.10;;;;;;5035930;28;20447;-83
2022/06/05 13:29:22;;;;;;;16.50;5.60;;;27.90;80.80;;;;;;5034860;28;20482;-84